sensor_id;sensor_type;location;lat;lon;timestamp;pressure;altitude;pressure_sealevel;temperature;humidity
45731;BME280;31440;48.584;13.460;2023-03-03T00:02:49;96864.53;;;1.09;100.00
45731;BME280;31440;48.584;13.460;2023-03-03T00:05:53;96855.13;;;1.08;100.00
45731;BME280;31440;48.584;13.460;2023-03-03T00:08:58;96850.81;;;1.35;98.12
45731;BME280;31440;48.584;13.460;2023-03-03T00:12:20;96843.09;;;1.47;95.12
45731;BME280;31440;48.584;13.460;2023-03-03T00:15:25;96863.63;;;1.32;96.20
45731;BME280;31440;48.584;13.460;2023-03-03T00:18:32;96871.28;;;1.45;95.67
45731;BME280;31440;48.584;13.460;2023-03-03T00:24:44;96871.38;;;1.03;100.00
45731;BME280;31440;48.584;13.460;2023-03-03T00:27:49;96870.50;;;1.19;100.00
45731;BME280;31440;48.584;13.460;2023-03-03T00:30:56;96873.00;;;1.43;95.48
45731;BME280;31440;48.584;13.460;2023-03-03T00:34:24;96879.91;;;0.73;98.24
45731;BME280;31440;48.584;13.460;2023-03-03T00:37:33;96876.50;;;0.60;100.00
45731;BME280;31440;48.584;13.460;2023-03-03T00:40:39;96869.69;;;0.82;100.00
45731;BME280;31440;48.584;13.460;2023-03-03T00:43:44;96870.53;;;0.95;100.00
45731;BME280;31440;48.584;13.460;2023-03-03T00:46:49;96868.81;;;0.95;100.00
45731;BME280;31440;48.584;13.460;2023-03-03T00:50:14;96879.03;;;0.56;100.00
45731;BME280;31440;48.584;13.460;2023-03-03T00:53:22;96854.25;;;0.17;100.00
45731;BME280;31440;48.584;13.460;2023-03-03T00:56:27;96868.72;;;0.04;100.00
45731;BME280;31440;48.584;13.460;2023-03-03T00:59:33;96820.91;;;-0.31;100.00
45731;BME280;31440;48.584;13.460;2023-03-03T01:02:37;96867.06;;;0.23;100.00
45731;BME280;31440;48.584;13.460;2023-03-03T01:05:42;96860.28;;;0.54;100.00
45731;BME280;31440;48.584;13.460;2023-03-03T01:08:47;96874.72;;;0.12;100.00
45731;BME280;31440;48.584;13.460;2023-03-03T01:11:51;96883.59;;;-0.95;100.00
45731;BME280;31440;48.584;13.460;2023-03-03T01:14:56;96884.28;;;-1.16;100.00
45731;BME280;31440;48.584;13.460;2023-03-03T01:18:00;96892.81;;;-1.14;100.00
45731;BME280;31440;48.584;13.460;2023-03-03T01:21:05;96884.66;;;-0.63;100.00
45731;BME280;31440;48.584;13.460;2023-03-03T01:24:10;96884.63;;;-0.66;100.00
45731;BME280;31440;48.584;13.460;2023-03-03T01:27:14;96885.53;;;-0.51;100.00
45731;BME280;31440;48.584;13.460;2023-03-03T01:30:19;96879.59;;;-0.47;100.00
45731;BME280;31440;48.584;13.460;2023-03-03T01:33:23;96875.44;;;-0.27;100.00
45731;BME280;31440;48.584;13.460;2023-03-03T01:36:28;96885.47;;;-0.65;100.00
45731;BME280;31440;48.584;13.460;2023-03-03T01:39:33;96877.88;;;-0.50;100.00
45731;BME280;31440;48.584;13.460;2023-03-03T01:42:38;96886.34;;;-0.65;100.00
45731;BME280;31440;48.584;13.460;2023-03-03T01:49:05;96880.38;;;-0.62;100.00
45731;BME280;31440;48.584;13.460;2023-03-03T01:52:16;96873.56;;;-0.65;100.00
45731;BME280;31440;48.584;13.460;2023-03-03T01:55:37;96887.34;;;-0.31;100.00
45731;BME280;31440;48.584;13.460;2023-03-03T01:58:46;96881.31;;;-0.46;100.00
45731;BME280;31440;48.584;13.460;2023-03-03T02:01:52;96882.84;;;-0.77;100.00
45731;BME280;31440;48.584;13.460;2023-03-03T02:04:59;96887.22;;;-0.59;100.00
45731;BME280;31440;48.584;13.460;2023-03-03T02:08:04;96885.59;;;-0.44;100.00
45731;BME280;31440;48.584;13.460;2023-03-03T02:11:12;96883.94;;;-0.31;100.00
45731;BME280;31440;48.584;13.460;2023-03-03T02:14:17;96884.66;;;-0.56;100.00
45731;BME280;31440;48.584;13.460;2023-03-03T02:17:22;96885.34;;;-0.86;100.00
45731;BME280;31440;48.584;13.460;2023-03-03T02:24:09;96877.72;;;-0.82;100.00
45731;BME280;31440;48.584;13.460;2023-03-03T02:27:16;96878.69;;;-0.60;100.00
45731;BME280;31440;48.584;13.460;2023-03-03T02:30:22;96871.88;;;-0.56;100.00
45731;BME280;31440;48.584;13.460;2023-03-03T02:33:27;96882.09;;;-0.63;100.00
45731;BME280;31440;48.584;13.460;2023-03-03T02:36:36;96878.66;;;-0.65;100.00
45731;BME280;31440;48.584;13.460;2023-03-03T02:39:42;96877.75;;;-0.77;100.00
45731;BME280;31440;48.584;13.460;2023-03-03T02:42:48;96874.41;;;-0.64;100.00
45731;BME280;31440;48.584;13.460;2023-03-03T02:45:56;96878.63;;;-0.72;100.00
45731;BME280;31440;48.584;13.460;2023-03-03T02:49:03;96873.66;;;-0.48;100.00
45731;BME280;31440;48.584;13.460;2023-03-03T02:52:10;96895.84;;;-0.36;100.00
45731;BME280;31440;48.584;13.460;2023-03-03T02:55:17;96894.91;;;-0.52;100.00
45731;BME280;31440;48.584;13.460;2023-03-03T02:58:22;96892.38;;;-0.49;100.00
45731;BME280;31440;48.584;13.460;2023-03-03T03:01:27;96894.97;;;-0.43;100.00
45731;BME280;31440;48.584;13.460;2023-03-03T03:04:33;96892.56;;;-0.00;100.00
45731;BME280;31440;48.584;13.460;2023-03-03T03:07:38;96896.66;;;-0.43;100.00
45731;BME280;31440;48.584;13.460;2023-03-03T03:10:43;96900.94;;;-0.35;100.00
45731;BME280;31440;48.584;13.460;2023-03-03T03:13:48;96894.03;;;-0.58;100.00
45731;BME280;31440;48.584;13.460;2023-03-03T03:16:53;96897.41;;;-0.63;100.00
45731;BME280;31440;48.584;13.460;2023-03-03T03:19:57;96880.41;;;-0.61;100.00
45731;BME280;31440;48.584;13.460;2023-03-03T03:23:03;96901.59;;;-0.75;100.00
45731;BME280;31440;48.584;13.460;2023-03-03T03:26:08;96908.53;;;-0.51;100.00
45731;BME280;31440;48.584;13.460;2023-03-03T03:32:18;96899.97;;;-0.56;100.00
45731;BME280;31440;48.584;13.460;2023-03-03T03:35:23;96904.16;;;-0.69;100.00
45731;BME280;31440;48.584;13.460;2023-03-03T03:38:28;96916.03;;;-0.80;100.00
45731;BME280;31440;48.584;13.460;2023-03-03T03:41:36;96914.56;;;-0.43;100.00
45731;BME280;31440;48.584;13.460;2023-03-03T03:44:41;96918.03;;;-0.28;100.00
45731;BME280;31440;48.584;13.460;2023-03-03T03:47:45;96913.63;;;-0.57;100.00
45731;BME280;31440;48.584;13.460;2023-03-03T03:50:51;96916.13;;;-0.65;100.00
45731;BME280;31440;48.584;13.460;2023-03-03T03:53:58;96922.81;;;-0.84;100.00
45731;BME280;31440;48.584;13.460;2023-03-03T03:57:03;96920.34;;;-0.69;100.00
45731;BME280;31440;48.584;13.460;2023-03-03T04:00:09;96921.97;;;-0.83;100.00
45731;BME280;31440;48.584;13.460;2023-03-03T04:03:17;96923.66;;;-0.82;100.00
45731;BME280;31440;48.584;13.460;2023-03-03T04:06:24;96923.72;;;-0.77;100.00
45731;BME280;31440;48.584;13.460;2023-03-03T04:09:29;96922.94;;;-0.66;100.00
45731;BME280;31440;48.584;13.460;2023-03-03T04:15:48;96920.19;;;-0.93;100.00
45731;BME280;31440;48.584;13.460;2023-03-03T04:18:53;96928.06;;;-0.63;100.00
45731;BME280;31440;48.584;13.460;2023-03-03T04:21:58;96929.97;;;-0.27;100.00
45731;BME280;31440;48.584;13.460;2023-03-03T04:25:04;96921.44;;;-0.29;100.00
45731;BME280;31440;48.584;13.460;2023-03-03T04:28:15;96921.41;;;-0.33;100.00
45731;BME280;31440;48.584;13.460;2023-03-03T04:31:20;96913.56;;;-0.67;100.00
45731;BME280;31440;48.584;13.460;2023-03-03T04:34:25;96902.44;;;-0.78;100.00
45731;BME280;31440;48.584;13.460;2023-03-03T04:37:30;96912.69;;;-0.70;100.00
45731;BME280;31440;48.584;13.460;2023-03-03T04:40:35;96919.66;;;-0.45;100.00
45731;BME280;31440;48.584;13.460;2023-03-03T04:43:40;96924.75;;;-0.46;100.00
45731;BME280;31440;48.584;13.460;2023-03-03T04:46:46;96919.66;;;-0.45;100.00
45731;BME280;31440;48.584;13.460;2023-03-03T04:52:57;96921.25;;;-0.61;100.00
45731;BME280;31440;48.584;13.460;2023-03-03T04:56:02;96932.53;;;-0.23;100.00
45731;BME280;31440;48.584;13.460;2023-03-03T04:59:07;96927.41;;;-0.19;100.00
45731;BME280;31440;48.584;13.460;2023-03-03T05:02:12;96933.06;;;-0.79;100.00
45731;BME280;31440;48.584;13.460;2023-03-03T05:05:16;96932.28;;;-0.66;100.00
45731;BME280;31440;48.584;13.460;2023-03-03T05:08:21;96943.44;;;-0.50;100.00
45731;BME280;31440;48.584;13.460;2023-03-03T05:11:25;96937.66;;;-0.23;100.00
45731;BME280;31440;48.584;13.460;2023-03-03T05:14:30;96943.59;;;-0.26;100.00
45731;BME280;31440;48.584;13.460;2023-03-03T05:17:35;96944.34;;;-0.45;100.00
45731;BME280;31440;48.584;13.460;2023-03-03T05:20:40;96943.59;;;-0.24;100.00
45731;BME280;31440;48.584;13.460;2023-03-03T05:23:45;96950.44;;;-0.14;100.00
45731;BME280;31440;48.584;13.460;2023-03-03T05:26:49;96949.50;;;-0.32;100.00
45731;BME280;31440;48.584;13.460;2023-03-03T05:29:54;96956.31;;;-0.32;100.00
45731;BME280;31440;48.584;13.460;2023-03-03T05:33:01;96951.09;;;-0.52;100.00
45731;BME280;31440;48.584;13.460;2023-03-03T05:36:06;96962.00;;;-0.74;100.00
45731;BME280;31440;48.584;13.460;2023-03-03T05:39:11;96957.88;;;-0.55;100.00
45731;BME280;31440;48.584;13.460;2023-03-03T05:42:15;96962.16;;;-0.57;100.00
45731;BME280;31440;48.584;13.460;2023-03-03T05:45:20;96973.34;;;-0.36;100.00
45731;BME280;31440;48.584;13.460;2023-03-03T05:48:25;96973.25;;;-0.51;100.00
45731;BME280;31440;48.584;13.460;2023-03-03T05:51:29;96964.72;;;-0.57;100.00
45731;BME280;31440;48.584;13.460;2023-03-03T05:54:35;96978.38;;;-0.49;100.00
45731;BME280;31440;48.584;13.460;2023-03-03T05:57:39;96970.66;;;-0.58;100.00
45731;BME280;31440;48.584;13.460;2023-03-03T06:00:44;96974.09;;;-0.52;100.00
45731;BME280;31440;48.584;13.460;2023-03-03T06:03:49;96980.09;;;-0.47;100.00
45731;BME280;31440;48.584;13.460;2023-03-03T06:06:53;96982.59;;;-0.57;100.00
45731;BME280;31440;48.584;13.460;2023-03-03T06:09:58;96974.81;;;-0.70;100.00
45731;BME280;31440;48.584;13.460;2023-03-03T06:13:03;96957.16;;;-0.36;100.00
45731;BME280;31440;48.584;13.460;2023-03-03T06:16:08;96982.91;;;0.02;100.00
45731;BME280;31440;48.584;13.460;2023-03-03T06:19:12;96985.50;;;0.09;100.00
45731;BME280;31440;48.584;13.460;2023-03-03T06:22:17;96988.94;;;0.16;100.00
45731;BME280;31440;48.584;13.460;2023-03-03T06:25:22;96990.63;;;0.16;100.00
45731;BME280;31440;48.584;13.460;2023-03-03T06:31:32;96989.00;;;0.34;100.00
45731;BME280;31440;48.584;13.460;2023-03-03T06:34:37;96992.50;;;0.62;100.00
45731;BME280;31440;48.584;13.460;2023-03-03T06:37:41;96999.34;;;0.63;100.00
45731;BME280;31440;48.584;13.460;2023-03-03T06:40:46;96985.59;;;0.32;100.00
45731;BME280;31440;48.584;13.460;2023-03-03T06:43:52;96959.16;;;0.36;100.00
45731;BME280;31440;48.584;13.460;2023-03-03T06:46:56;97011.22;;;0.43;100.00
45731;BME280;31440;48.584;13.460;2023-03-03T06:50:02;97009.63;;;0.83;100.00
45731;BME280;31440;48.584;13.460;2023-03-03T06:53:12;97013.88;;;0.76;100.00
45731;BME280;31440;48.584;13.460;2023-03-03T06:56:17;97007.88;;;0.71;100.00
45731;BME280;31440;48.584;13.460;2023-03-03T06:59:22;97006.09;;;0.46;100.00
45731;BME280;31440;48.584;13.460;2023-03-03T07:02:27;97001.00;;;0.49;100.00
45731;BME280;31440;48.584;13.460;2023-03-03T07:05:31;97017.22;;;0.50;100.00
45731;BME280;31440;48.584;13.460;2023-03-03T07:08:38;97021.53;;;0.66;100.00
45731;BME280;31440;48.584;13.460;2023-03-03T07:11:43;97009.47;;;0.37;100.00
45731;BME280;31440;48.584;13.460;2023-03-03T07:18:34;97020.59;;;0.42;100.00
45731;BME280;31440;48.584;13.460;2023-03-03T07:21:40;96995.88;;;0.55;100.00
45731;BME280;31440;48.584;13.460;2023-03-03T07:24:50;97027.53;;;0.92;100.00
45731;BME280;31440;48.584;13.460;2023-03-03T07:28:10;97028.38;;;0.81;100.00
45731;BME280;31440;48.584;13.460;2023-03-03T07:31:37;97035.09;;;0.53;100.00
45731;BME280;31440;48.584;13.460;2023-03-03T07:34:45;97033.47;;;0.74;100.00
45731;BME280;31440;48.584;13.460;2023-03-03T07:37:51;97024.13;;;0.89;100.00
45731;BME280;31440;48.584;13.460;2023-03-03T07:40:57;97036.13;;;1.26;100.00
45731;BME280;31440;48.584;13.460;2023-03-03T07:47:22;97046.34;;;1.06;100.00
45731;BME280;31440;48.584;13.460;2023-03-03T07:50:27;97039.50;;;0.98;100.00
45731;BME280;31440;48.584;13.460;2023-03-03T07:53:35;96992.53;;;0.81;100.00
45731;BME280;31440;48.584;13.460;2023-03-03T07:56:41;97041.25;;;1.49;100.00
45731;BME280;31440;48.584;13.460;2023-03-03T07:59:51;97042.94;;;1.41;100.00
45731;BME280;31440;48.584;13.460;2023-03-03T08:03:16;97053.22;;;1.20;100.00
45731;BME280;31440;48.584;13.460;2023-03-03T08:09:46;97050.66;;;1.67;100.00
45731;BME280;31440;48.584;13.460;2023-03-03T08:16:17;97050.66;;;1.76;100.00
45731;BME280;31440;48.584;13.460;2023-03-03T08:22:33;97044.66;;;1.84;100.00
45731;BME280;31440;48.584;13.460;2023-03-03T08:25:39;97018.19;;;1.46;100.00
45731;BME280;31440;48.584;13.460;2023-03-03T08:28:45;97042.03;;;2.12;100.00
45731;BME280;31440;48.584;13.460;2023-03-03T08:31:50;97042.84;;;2.20;100.00
45731;BME280;31440;48.584;13.460;2023-03-03T08:34:54;97042.81;;;2.37;100.00
45731;BME280;31440;48.584;13.460;2023-03-03T08:37:59;97045.34;;;2.43;100.00
45731;BME280;31440;48.584;13.460;2023-03-03T08:41:04;97039.31;;;2.58;100.00
45731;BME280;31440;48.584;13.460;2023-03-03T08:44:10;97042.72;;;2.61;100.00
45731;BME280;31440;48.584;13.460;2023-03-03T08:47:15;97051.22;;;2.68;100.00
45731;BME280;31440;48.584;13.460;2023-03-03T08:50:19;97044.00;;;3.34;100.00
45731;BME280;31440;48.584;13.460;2023-03-03T08:53:24;97042.72;;;3.85;100.00
45731;BME280;31440;48.584;13.460;2023-03-03T08:56:29;97043.44;;;4.04;100.00
45731;BME280;31440;48.584;13.460;2023-03-03T08:59:34;97053.56;;;4.17;100.00
45731;BME280;31440;48.584;13.460;2023-03-03T09:02:42;97045.44;;;3.67;100.00
45731;BME280;31440;48.584;13.460;2023-03-03T09:05:48;97001.56;;;3.83;100.00
45731;BME280;31440;48.584;13.460;2023-03-03T09:08:52;97050.94;;;4.25;100.00
45731;BME280;31440;48.584;13.460;2023-03-03T09:12:18;97048.66;;;3.95;100.00
45731;BME280;31440;48.584;13.460;2023-03-03T09:15:31;97047.03;;;5.28;100.00
45731;BME280;31440;48.584;13.460;2023-03-03T09:18:37;97035.56;;;4.17;100.00
45731;BME280;31440;48.584;13.460;2023-03-03T09:21:42;97041.03;;;4.63;100.00
45731;BME280;31440;48.584;13.460;2023-03-03T09:24:47;97051.81;;;4.21;100.00
45731;BME280;31440;48.584;13.460;2023-03-03T09:31:00;97057.47;;;4.53;100.00
45731;BME280;31440;48.584;13.460;2023-03-03T09:34:19;97061.41;;;4.82;100.00
45731;BME280;31440;48.584;13.460;2023-03-03T09:37:34;97058.19;;;4.65;100.00
45731;BME280;31440;48.584;13.460;2023-03-03T09:50:41;97054.59;;;4.79;100.00
45731;BME280;31440;48.584;13.460;2023-03-03T09:54:06;97061.22;;;4.97;100.00
45731;BME280;31440;48.584;13.460;2023-03-03T09:57:30;97020.19;;;5.40;98.63
45731;BME280;31440;48.584;13.460;2023-03-03T10:07:51;97074.75;;;7.10;83.12
45731;BME280;31440;48.584;13.460;2023-03-03T10:17:53;97064.59;;;8.44;74.17
45731;BME280;31440;48.584;13.460;2023-03-03T10:21:19;97058.72;;;7.32;70.21
45731;BME280;31440;48.584;13.460;2023-03-03T10:24:29;97057.78;;;7.72;74.46
45731;BME280;31440;48.584;13.460;2023-03-03T10:28:05;97055.00;;;7.81;73.26
45731;BME280;31440;48.584;13.460;2023-03-03T10:35:22;97044.59;;;7.47;74.92
45731;BME280;31440;48.584;13.460;2023-03-03T10:52:29;97027.16;;;8.85;67.79
45731;BME280;31440;48.584;13.460;2023-03-03T10:55:37;97028.03;;;9.13;67.85
45731;BME280;31440;48.584;13.460;2023-03-03T11:02:17;97035.91;;;8.52;67.93
45731;BME280;31440;48.584;13.460;2023-03-03T11:05:36;97039.47;;;9.36;64.06
45731;BME280;31440;48.584;13.460;2023-03-03T11:08:48;97049.22;;;9.56;62.26
45731;BME280;31440;48.584;13.460;2023-03-03T11:19:24;97023.66;;;9.70;60.36
45731;BME280;31440;48.584;13.460;2023-03-03T11:22:40;97025.72;;;9.32;60.08
45731;BME280;31440;48.584;13.460;2023-03-03T11:26:08;97016.59;;;10.26;60.37
45731;BME280;31440;48.584;13.460;2023-03-03T11:29:29;97018.84;;;9.59;57.51
45731;BME280;31440;48.584;13.460;2023-03-03T11:32:52;97015.28;;;10.14;55.73
45731;BME280;31440;48.584;13.460;2023-03-03T11:36:15;97012.19;;;10.53;53.60
45731;BME280;31440;48.584;13.460;2023-03-03T11:39:23;97013.09;;;10.99;55.91
45731;BME280;31440;48.584;13.460;2023-03-03T11:42:50;97011.56;;;10.46;54.14
45731;BME280;31440;48.584;13.460;2023-03-03T11:46:21;97008.66;;;11.68;53.65
45731;BME280;31440;48.584;13.460;2023-03-03T11:49:38;97000.56;;;11.32;50.96
45731;BME280;31440;48.584;13.460;2023-03-03T11:53:17;97001.13;;;10.23;53.10
45731;BME280;31440;48.584;13.460;2023-03-03T11:56:39;96998.50;;;11.62;49.50
45731;BME280;31440;48.584;13.460;2023-03-03T12:03:01;96991.69;;;11.79;50.90
45731;BME280;31440;48.584;13.460;2023-03-03T12:06:41;96969.03;;;12.81;50.88
45731;BME280;31440;48.584;13.460;2023-03-03T12:10:06;96977.50;;;12.07;47.74
45731;BME280;31440;48.584;13.460;2023-03-03T12:13:39;96981.59;;;11.72;46.25
45731;BME280;31440;48.584;13.460;2023-03-03T12:16:52;96981.28;;;12.00;45.92
45731;BME280;31440;48.584;13.460;2023-03-03T12:20:17;96973.09;;;12.29;46.95
45731;BME280;31440;48.584;13.460;2023-03-03T12:37:16;96968.97;;;12.83;44.29
45731;BME280;31440;48.584;13.460;2023-03-03T12:40:33;96962.25;;;12.18;44.84
45731;BME280;31440;48.584;13.460;2023-03-03T12:47:08;96962.09;;;12.80;46.99
45731;BME280;31440;48.584;13.460;2023-03-03T12:57:18;96946.88;;;12.71;46.07
45731;BME280;31440;48.584;13.460;2023-03-03T13:10:20;96949.06;;;12.80;43.64
45731;BME280;31440;48.584;13.460;2023-03-03T13:13:39;96942.56;;;12.31;45.57
45731;BME280;31440;48.584;13.460;2023-03-03T13:26:49;96937.53;;;13.22;42.07
45731;BME280;31440;48.584;13.460;2023-03-03T13:30:00;96933.25;;;13.91;41.45
45731;BME280;31440;48.584;13.460;2023-03-03T13:33:11;96934.31;;;13.70;41.91
45731;BME280;31440;48.584;13.460;2023-03-03T13:36:22;96934.81;;;12.87;43.01
45731;BME280;31440;48.584;13.460;2023-03-03T13:39:50;96931.16;;;13.98;42.28
45731;BME280;31440;48.584;13.460;2023-03-03T13:42:59;96927.25;;;13.89;42.01
45731;BME280;31440;48.584;13.460;2023-03-03T13:46:36;96934.78;;;13.95;40.50
45731;BME280;31440;48.584;13.460;2023-03-03T13:50:10;96922.19;;;13.86;40.52
45731;BME280;31440;48.584;13.460;2023-03-03T13:53:36;96921.84;;;14.27;40.71
45731;BME280;31440;48.584;13.460;2023-03-03T14:00:20;96916.06;;;13.34;41.77
45731;BME280;31440;48.584;13.460;2023-03-03T14:07:13;96903.22;;;12.93;41.20
45731;BME280;31440;48.584;13.460;2023-03-03T14:10:24;96915.94;;;12.04;42.77
45731;BME280;31440;48.584;13.460;2023-03-03T14:17:10;96918.81;;;13.67;40.72
45731;BME280;31440;48.584;13.460;2023-03-03T14:20:23;96919.88;;;13.27;40.86
45731;BME280;31440;48.584;13.460;2023-03-03T14:23:47;96910.69;;;13.54;40.11
45731;BME280;31440;48.584;13.460;2023-03-03T14:26:55;96906.94;;;13.77;39.78
45731;BME280;31440;48.584;13.460;2023-03-03T14:30:27;96905.78;;;14.00;40.51
45731;BME280;31440;48.584;13.460;2023-03-03T14:33:33;96903.88;;;13.16;41.81
45731;BME280;31440;48.584;13.460;2023-03-03T14:36:40;96905.97;;;13.26;41.49
45731;BME280;31440;48.584;13.460;2023-03-03T14:40:13;96904.44;;;13.22;41.59
45731;BME280;31440;48.584;13.460;2023-03-03T14:43:32;96909.28;;;13.30;41.21
45731;BME280;31440;48.584;13.460;2023-03-03T14:46:39;96903.44;;;14.28;40.70
45731;BME280;31440;48.584;13.460;2023-03-03T14:49:45;96899.50;;;14.04;40.70
45731;BME280;31440;48.584;13.460;2023-03-03T14:53:04;96890.53;;;14.25;39.28
45731;BME280;31440;48.584;13.460;2023-03-03T14:56:28;96899.34;;;14.56;39.24
45731;BME280;31440;48.584;13.460;2023-03-03T14:59:33;96907.47;;;12.58;42.06
45731;BME280;31440;48.584;13.460;2023-03-03T15:06:09;96897.59;;;11.87;43.67
45731;BME280;31440;48.584;13.460;2023-03-03T15:12:39;96895.63;;;11.08;46.32
45731;BME280;31440;48.584;13.460;2023-03-03T15:15:50;96895.41;;;12.17;44.47
45731;BME280;31440;48.584;13.460;2023-03-03T15:19:14;96895.91;;;12.64;44.00
45731;BME280;31440;48.584;13.460;2023-03-03T15:22:55;96902.50;;;12.52;44.44
45731;BME280;31440;48.584;13.460;2023-03-03T15:26:23;96899.41;;;11.85;46.05
45731;BME280;31440;48.584;13.460;2023-03-03T15:33:34;96893.69;;;12.16;43.79
45731;BME280;31440;48.584;13.460;2023-03-03T15:37:06;96903.44;;;12.12;44.19
45731;BME280;31440;48.584;13.460;2023-03-03T15:40:26;96903.03;;;12.21;44.52
45731;BME280;31440;48.584;13.460;2023-03-03T15:43:48;96909.41;;;11.33;45.69
45731;BME280;31440;48.584;13.460;2023-03-03T15:47:09;96922.34;;;10.46;46.91
45731;BME280;31440;48.584;13.460;2023-03-03T16:00:12;96918.66;;;10.28;49.00
45731;BME280;31440;48.584;13.460;2023-03-03T16:03:40;96899.19;;;8.88;50.87
45731;BME280;31440;48.584;13.460;2023-03-03T16:07:22;96915.53;;;9.44;50.79
45731;BME280;31440;48.584;13.460;2023-03-03T16:20:41;96928.59;;;8.87;53.95
45731;BME280;31440;48.584;13.460;2023-03-03T16:23:50;96927.63;;;8.91;54.27
45731;BME280;31440;48.584;13.460;2023-03-03T16:27:12;96929.31;;;8.92;54.10
45731;BME280;31440;48.584;13.460;2023-03-03T16:30:32;96930.97;;;8.65;54.76
45731;BME280;31440;48.584;13.460;2023-03-03T16:34:20;96945.00;;;8.87;53.69
45731;BME280;31440;48.584;13.460;2023-03-03T16:37:35;96943.91;;;8.66;53.75
45731;BME280;31440;48.584;13.460;2023-03-03T16:40:56;96946.00;;;8.54;54.33
45731;BME280;31440;48.584;13.460;2023-03-03T16:47:30;96953.78;;;7.90;56.19
45731;BME280;31440;48.584;13.460;2023-03-03T16:57:40;96965.38;;;7.75;57.96
45731;BME280;31440;48.584;13.460;2023-03-03T17:07:18;96977.63;;;7.33;60.34
45731;BME280;31440;48.584;13.460;2023-03-03T17:10:28;96976.75;;;7.34;62.54
45731;BME280;31440;48.584;13.460;2023-03-03T17:17:04;96998.88;;;6.72;72.30
45731;BME280;31440;48.584;13.460;2023-03-03T17:20:20;96993.66;;;6.32;76.04
45731;BME280;31440;48.584;13.460;2023-03-03T17:23:50;97004.34;;;6.58;75.98
45731;BME280;31440;48.584;13.460;2023-03-03T17:37:23;97033.78;;;6.02;83.46
45731;BME280;31440;48.584;13.460;2023-03-03T17:40:39;97033.44;;;6.20;83.84
45731;BME280;31440;48.584;13.460;2023-03-03T17:47:23;97034.81;;;5.92;85.41
45731;BME280;31440;48.584;13.460;2023-03-03T17:50:53;97030.06;;;5.69;88.56
45731;BME280;31440;48.584;13.460;2023-03-03T17:58:28;97038.13;;;5.48;92.18
45731;BME280;31440;48.584;13.460;2023-03-03T18:01:57;97047.75;;;5.37;93.88
45731;BME280;31440;48.584;13.460;2023-03-03T18:12:41;97044.72;;;5.10;95.08
45731;BME280;31440;48.584;13.460;2023-03-03T18:16:00;97051.94;;;4.82;99.77
45731;BME280;31440;48.584;13.460;2023-03-03T18:22:46;97054.41;;;4.93;100.00
45731;BME280;31440;48.584;13.460;2023-03-03T18:25:56;97057.00;;;4.90;100.00
45731;BME280;31440;48.584;13.460;2023-03-03T18:32:19;97062.66;;;4.50;100.00
45731;BME280;31440;48.584;13.460;2023-03-03T18:38:35;97060.91;;;4.54;100.00
45731;BME280;31440;48.584;13.460;2023-03-03T18:48:47;97073.81;;;4.51;100.00
45731;BME280;31440;48.584;13.460;2023-03-03T18:52:13;97071.13;;;4.61;100.00
45731;BME280;31440;48.584;13.460;2023-03-03T18:55:23;97077.06;;;4.63;100.00
45731;BME280;31440;48.584;13.460;2023-03-03T18:58:34;97080.63;;;4.56;100.00
45731;BME280;31440;48.584;13.460;2023-03-03T19:01:42;97075.66;;;4.40;100.00
45731;BME280;31440;48.584;13.460;2023-03-03T19:04:53;97073.91;;;4.43;100.00
45731;BME280;31440;48.584;13.460;2023-03-03T19:08:02;97068.66;;;4.51;100.00
45731;BME280;31440;48.584;13.460;2023-03-03T19:17:59;97083.72;;;4.08;100.00
45731;BME280;31440;48.584;13.460;2023-03-03T19:21:23;97081.16;;;4.06;100.00
45731;BME280;31440;48.584;13.460;2023-03-03T19:24:31;97079.44;;;4.07;100.00
45731;BME280;31440;48.584;13.460;2023-03-03T19:27:47;97077.75;;;4.03;100.00
45731;BME280;31440;48.584;13.460;2023-03-03T19:31:14;97078.59;;;4.05;100.00
45731;BME280;31440;48.584;13.460;2023-03-03T19:41:02;97076.16;;;3.86;100.00
45731;BME280;31440;48.584;13.460;2023-03-03T19:44:41;97084.94;;;3.58;100.00
45731;BME280;31440;48.584;13.460;2023-03-03T19:47:56;97082.28;;;3.72;100.00
45731;BME280;31440;48.584;13.460;2023-03-03T20:08:33;97083.44;;;3.27;100.00
45731;BME280;31440;48.584;13.460;2023-03-03T20:15:15;97079.72;;;3.70;100.00
45731;BME280;31440;48.584;13.460;2023-03-03T20:22:06;97088.50;;;3.40;100.00
45731;BME280;31440;48.584;13.460;2023-03-03T20:32:28;97091.16;;;3.25;100.00
45731;BME280;31440;48.584;13.460;2023-03-03T20:35:41;97090.50;;;2.89;100.00
45731;BME280;31440;48.584;13.460;2023-03-03T20:39:05;97098.13;;;3.03;100.00
45731;BME280;31440;48.584;13.460;2023-03-03T20:52:18;97089.72;;;2.78;100.00
45731;BME280;31440;48.584;13.460;2023-03-03T20:55:38;97105.13;;;2.68;100.00
45731;BME280;31440;48.584;13.460;2023-03-03T20:59:04;97105.13;;;2.71;100.00
45731;BME280;31440;48.584;13.460;2023-03-03T21:05:22;97101.69;;;2.82;100.00
45731;BME280;31440;48.584;13.460;2023-03-03T21:14:41;97116.38;;;2.38;100.00
45731;BME280;31440;48.584;13.460;2023-03-03T21:17:45;97115.50;;;2.43;100.00
45731;BME280;31440;48.584;13.460;2023-03-03T21:20:50;97112.88;;;2.57;100.00
45731;BME280;31440;48.584;13.460;2023-03-03T21:23:55;97115.53;;;2.28;100.00
45731;BME280;31440;48.584;13.460;2023-03-03T21:30:14;97114.66;;;2.34;100.00
45731;BME280;31440;48.584;13.460;2023-03-03T21:39:40;97110.41;;;2.21;100.00
45731;BME280;31440;48.584;13.460;2023-03-03T21:42:45;97125.81;;;2.14;100.00
45731;BME280;31440;48.584;13.460;2023-03-03T21:45:50;97117.28;;;2.03;100.00
45731;BME280;31440;48.584;13.460;2023-03-03T21:48:54;97068.59;;;1.74;100.00
45731;BME280;31440;48.584;13.460;2023-03-03T21:51:59;97117.25;;;2.15;100.00
45731;BME280;31440;48.584;13.460;2023-03-03T21:55:05;97117.28;;;2.11;100.00
45731;BME280;31440;48.584;13.460;2023-03-03T21:58:09;97120.69;;;2.01;100.00